sensor_id;sensor_type;location;lat;lon;timestamp;P1;durP1;ratioP1;P2;durP2;ratioP2
52284;SDS011;38238;53.304;6.606;2022-08-21T00:00:12;7.10;;;3.78;;
52284;SDS011;38238;53.304;6.606;2022-08-21T00:02:49;8.38;;;4.00;;
52284;SDS011;38238;53.304;6.606;2022-08-21T00:05:21;6.75;;;4.53;;
52284;SDS011;38238;53.304;6.606;2022-08-21T00:07:47;7.80;;;3.80;;
52284;SDS011;38238;53.304;6.606;2022-08-21T00:10:14;7.50;;;3.60;;
52284;SDS011;38238;53.304;6.606;2022-08-21T00:12:40;7.82;;;4.20;;
52284;SDS011;38238;53.304;6.606;2022-08-21T00:15:08;5.47;;;3.65;;
52284;SDS011;38238;53.304;6.606;2022-08-21T00:17:35;6.50;;;3.75;;
52284;SDS011;38238;53.304;6.606;2022-08-21T00:20:01;6.28;;;3.55;;
52284;SDS011;38238;53.304;6.606;2022-08-21T00:22:29;6.80;;;4.15;;
52284;SDS011;38238;53.304;6.606;2022-08-21T00:24:55;7.72;;;3.83;;
52284;SDS011;38238;53.304;6.606;2022-08-21T00:27:21;5.75;;;3.30;;
52284;SDS011;38238;53.304;6.606;2022-08-21T00:29:47;9.25;;;3.95;;
52284;SDS011;38238;53.304;6.606;2022-08-21T00:32:12;5.55;;;3.30;;
52284;SDS011;38238;53.304;6.606;2022-08-21T00:34:45;6.95;;;3.55;;
52284;SDS011;38238;53.304;6.606;2022-08-21T00:37:10;6.63;;;3.95;;
52284;SDS011;38238;53.304;6.606;2022-08-21T00:39:37;8.23;;;3.67;;
52284;SDS011;38238;53.304;6.606;2022-08-21T00:42:03;6.80;;;3.75;;
52284;SDS011;38238;53.304;6.606;2022-08-21T00:44:29;7.13;;;3.80;;
52284;SDS011;38238;53.304;6.606;2022-08-21T00:46:56;7.32;;;3.92;;
52284;SDS011;38238;53.304;6.606;2022-08-21T00:49:22;4.90;;;3.33;;
52284;SDS011;38238;53.304;6.606;2022-08-21T00:51:51;9.02;;;3.78;;
52284;SDS011;38238;53.304;6.606;2022-08-21T00:54:21;6.90;;;3.72;;
52284;SDS011;38238;53.304;6.606;2022-08-21T00:56:52;6.97;;;4.13;;
52284;SDS011;38238;53.304;6.606;2022-08-21T00:59:20;7.05;;;3.83;;
52284;SDS011;38238;53.304;6.606;2022-08-21T01:01:48;5.82;;;3.83;;
52284;SDS011;38238;53.304;6.606;2022-08-21T01:04:15;7.53;;;3.75;;
52284;SDS011;38238;53.304;6.606;2022-08-21T01:06:41;10.07;;;3.58;;
52284;SDS011;38238;53.304;6.606;2022-08-21T01:09:08;8.45;;;3.38;;
52284;SDS011;38238;53.304;6.606;2022-08-21T01:11:34;6.93;;;3.58;;
52284;SDS011;38238;53.304;6.606;2022-08-21T01:14:00;10.45;;;4.30;;
52284;SDS011;38238;53.304;6.606;2022-08-21T01:16:27;5.72;;;3.47;;
52284;SDS011;38238;53.304;6.606;2022-08-21T01:18:53;8.25;;;3.78;;
52284;SDS011;38238;53.304;6.606;2022-08-21T01:21:21;9.20;;;3.78;;
52284;SDS011;38238;53.304;6.606;2022-08-21T01:23:50;8.38;;;3.75;;
52284;SDS011;38238;53.304;6.606;2022-08-21T01:26:19;7.60;;;3.95;;
52284;SDS011;38238;53.304;6.606;2022-08-21T01:31:32;9.02;;;3.70;;
52284;SDS011;38238;53.304;6.606;2022-08-21T01:33:58;9.35;;;4.18;;
52284;SDS011;38238;53.304;6.606;2022-08-21T01:36:25;9.68;;;3.70;;
52284;SDS011;38238;53.304;6.606;2022-08-21T01:38:52;7.88;;;3.72;;
52284;SDS011;38238;53.304;6.606;2022-08-21T01:41:17;7.88;;;3.72;;
52284;SDS011;38238;53.304;6.606;2022-08-21T01:43:43;6.70;;;3.80;;
52284;SDS011;38238;53.304;6.606;2022-08-21T01:46:10;6.82;;;4.07;;
52284;SDS011;38238;53.304;6.606;2022-08-21T01:48:37;6.63;;;3.47;;
52284;SDS011;38238;53.304;6.606;2022-08-21T01:51:03;5.50;;;3.67;;
52284;SDS011;38238;53.304;6.606;2022-08-21T01:53:30;7.63;;;4.30;;
52284;SDS011;38238;53.304;6.606;2022-08-21T01:55:56;7.43;;;3.97;;
52284;SDS011;38238;53.304;6.606;2022-08-21T01:58:22;9.13;;;3.95;;
52284;SDS011;38238;53.304;6.606;2022-08-21T02:00:48;5.05;;;3.58;;
52284;SDS011;38238;53.304;6.606;2022-08-21T02:03:14;6.82;;;3.85;;
52284;SDS011;38238;53.304;6.606;2022-08-21T02:05:40;8.35;;;3.65;;
52284;SDS011;38238;53.304;6.606;2022-08-21T02:08:05;7.75;;;4.72;;
52284;SDS011;38238;53.304;6.606;2022-08-21T02:10:32;6.60;;;4.03;;
52284;SDS011;38238;53.304;6.606;2022-08-21T02:12:58;6.50;;;3.83;;
52284;SDS011;38238;53.304;6.606;2022-08-21T02:15:25;6.70;;;4.00;;
52284;SDS011;38238;53.304;6.606;2022-08-21T02:17:54;7.22;;;4.05;;
52284;SDS011;38238;53.304;6.606;2022-08-21T02:20:23;7.82;;;4.00;;
52284;SDS011;38238;53.304;6.606;2022-08-21T02:22:51;7.10;;;3.75;;
52284;SDS011;38238;53.304;6.606;2022-08-21T02:25:17;10.07;;;4.20;;
52284;SDS011;38238;53.304;6.606;2022-08-21T02:27:45;8.63;;;4.22;;
52284;SDS011;38238;53.304;6.606;2022-08-21T02:30:20;6.20;;;3.90;;
52284;SDS011;38238;53.304;6.606;2022-08-21T02:32:51;7.82;;;3.72;;
52284;SDS011;38238;53.304;6.606;2022-08-21T02:35:17;6.35;;;4.18;;
52284;SDS011;38238;53.304;6.606;2022-08-21T02:37:44;10.25;;;3.90;;
52284;SDS011;38238;53.304;6.606;2022-08-21T02:40:17;6.30;;;4.38;;
52284;SDS011;38238;53.304;6.606;2022-08-21T02:42:46;7.18;;;4.10;;
52284;SDS011;38238;53.304;6.606;2022-08-21T02:45:13;7.32;;;3.55;;
52284;SDS011;38238;53.304;6.606;2022-08-21T02:47:40;9.50;;;4.32;;
52284;SDS011;38238;53.304;6.606;2022-08-21T02:50:12;8.00;;;4.20;;
52284;SDS011;38238;53.304;6.606;2022-08-21T02:52:38;8.13;;;4.80;;
52284;SDS011;38238;53.304;6.606;2022-08-21T02:55:03;6.53;;;4.20;;
52284;SDS011;38238;53.304;6.606;2022-08-21T02:57:30;7.00;;;4.53;;
52284;SDS011;38238;53.304;6.606;2022-08-21T02:59:57;6.45;;;3.75;;
52284;SDS011;38238;53.304;6.606;2022-08-21T03:02:23;7.97;;;4.53;;
52284;SDS011;38238;53.304;6.606;2022-08-21T03:04:49;6.25;;;4.00;;
52284;SDS011;38238;53.304;6.606;2022-08-21T03:07:15;7.22;;;4.00;;
52284;SDS011;38238;53.304;6.606;2022-08-21T03:09:41;7.20;;;4.20;;
52284;SDS011;38238;53.304;6.606;2022-08-21T03:12:07;7.43;;;4.25;;
52284;SDS011;38238;53.304;6.606;2022-08-21T03:14:32;6.93;;;4.10;;
52284;SDS011;38238;53.304;6.606;2022-08-21T03:16:58;5.93;;;4.32;;
52284;SDS011;38238;53.304;6.606;2022-08-21T03:19:24;8.93;;;4.30;;
52284;SDS011;38238;53.304;6.606;2022-08-21T03:21:49;7.95;;;4.50;;
52284;SDS011;38238;53.304;6.606;2022-08-21T03:24:15;8.80;;;4.57;;
52284;SDS011;38238;53.304;6.606;2022-08-21T03:26:41;8.00;;;4.72;;
52284;SDS011;38238;53.304;6.606;2022-08-21T03:29:06;7.35;;;5.22;;
52284;SDS011;38238;53.304;6.606;2022-08-21T03:31:32;9.07;;;4.68;;
52284;SDS011;38238;53.304;6.606;2022-08-21T03:33:58;6.00;;;4.45;;
52284;SDS011;38238;53.304;6.606;2022-08-21T03:36:24;10.48;;;5.15;;
52284;SDS011;38238;53.304;6.606;2022-08-21T03:38:50;8.40;;;5.22;;
52284;SDS011;38238;53.304;6.606;2022-08-21T03:41:16;8.23;;;4.55;;
52284;SDS011;38238;53.304;6.606;2022-08-21T03:43:41;7.95;;;4.50;;
52284;SDS011;38238;53.304;6.606;2022-08-21T03:46:07;7.45;;;5.18;;
52284;SDS011;38238;53.304;6.606;2022-08-21T03:48:33;11.20;;;5.03;;
52284;SDS011;38238;53.304;6.606;2022-08-21T03:51:01;8.40;;;4.97;;
52284;SDS011;38238;53.304;6.606;2022-08-21T03:53:27;8.27;;;4.45;;
52284;SDS011;38238;53.304;6.606;2022-08-21T03:55:53;7.00;;;4.60;;
52284;SDS011;38238;53.304;6.606;2022-08-21T03:58:20;7.45;;;4.93;;
52284;SDS011;38238;53.304;6.606;2022-08-21T04:00:49;8.70;;;4.53;;
52284;SDS011;38238;53.304;6.606;2022-08-21T04:03:17;7.47;;;4.80;;
52284;SDS011;38238;53.304;6.606;2022-08-21T04:05:44;9.23;;;4.75;;
52284;SDS011;38238;53.304;6.606;2022-08-21T04:08:11;9.45;;;4.75;;
52284;SDS011;38238;53.304;6.606;2022-08-21T04:10:38;6.85;;;4.25;;
52284;SDS011;38238;53.304;6.606;2022-08-21T04:13:05;6.72;;;4.40;;
52284;SDS011;38238;53.304;6.606;2022-08-21T04:15:32;10.18;;;5.00;;
52284;SDS011;38238;53.304;6.606;2022-08-21T04:17:58;7.47;;;4.82;;
52284;SDS011;38238;53.304;6.606;2022-08-21T04:20:24;8.65;;;4.68;;
52284;SDS011;38238;53.304;6.606;2022-08-21T04:22:51;7.95;;;4.68;;
52284;SDS011;38238;53.304;6.606;2022-08-21T04:25:18;7.35;;;4.20;;
52284;SDS011;38238;53.304;6.606;2022-08-21T04:27:45;9.40;;;4.65;;
52284;SDS011;38238;53.304;6.606;2022-08-21T04:30:11;9.10;;;4.78;;
52284;SDS011;38238;53.304;6.606;2022-08-21T04:32:41;9.30;;;4.32;;
52284;SDS011;38238;53.304;6.606;2022-08-21T04:35:09;8.40;;;4.60;;
52284;SDS011;38238;53.304;6.606;2022-08-21T04:37:36;8.50;;;4.45;;
52284;SDS011;38238;53.304;6.606;2022-08-21T04:40:03;8.80;;;4.68;;
52284;SDS011;38238;53.304;6.606;2022-08-21T04:42:30;8.32;;;4.38;;
52284;SDS011;38238;53.304;6.606;2022-08-21T04:44:56;11.10;;;4.82;;
52284;SDS011;38238;53.304;6.606;2022-08-21T04:47:22;9.98;;;4.55;;
52284;SDS011;38238;53.304;6.606;2022-08-21T04:49:49;9.70;;;4.85;;
52284;SDS011;38238;53.304;6.606;2022-08-21T04:52:16;9.25;;;3.97;;
52284;SDS011;38238;53.304;6.606;2022-08-21T04:54:44;5.10;;;3.75;;
52284;SDS011;38238;53.304;6.606;2022-08-21T04:57:12;9.20;;;4.38;;
52284;SDS011;38238;53.304;6.606;2022-08-21T04:59:45;7.25;;;4.22;;
52284;SDS011;38238;53.304;6.606;2022-08-21T05:02:13;9.48;;;4.38;;
52284;SDS011;38238;53.304;6.606;2022-08-21T05:04:50;9.30;;;4.40;;
52284;SDS011;38238;53.304;6.606;2022-08-21T05:07:27;7.85;;;4.35;;
52284;SDS011;38238;53.304;6.606;2022-08-21T05:09:55;9.80;;;4.70;;
52284;SDS011;38238;53.304;6.606;2022-08-21T05:12:21;9.70;;;4.32;;
52284;SDS011;38238;53.304;6.606;2022-08-21T05:14:47;10.95;;;5.00;;
52284;SDS011;38238;53.304;6.606;2022-08-21T05:17:13;10.82;;;4.88;;
52284;SDS011;38238;53.304;6.606;2022-08-21T05:19:39;9.52;;;4.20;;
52284;SDS011;38238;53.304;6.606;2022-08-21T05:22:05;7.55;;;4.32;;
52284;SDS011;38238;53.304;6.606;2022-08-21T05:24:31;9.30;;;4.45;;
52284;SDS011;38238;53.304;6.606;2022-08-21T05:26:57;8.35;;;4.85;;
52284;SDS011;38238;53.304;6.606;2022-08-21T05:29:23;8.13;;;4.55;;
52284;SDS011;38238;53.304;6.606;2022-08-21T05:31:49;9.68;;;4.45;;
52284;SDS011;38238;53.304;6.606;2022-08-21T05:34:19;7.65;;;4.68;;
52284;SDS011;38238;53.304;6.606;2022-08-21T05:36:46;8.90;;;4.20;;
52284;SDS011;38238;53.304;6.606;2022-08-21T05:39:12;8.82;;;4.25;;
52284;SDS011;38238;53.304;6.606;2022-08-21T05:41:38;8.20;;;4.18;;
52284;SDS011;38238;53.304;6.606;2022-08-21T05:44:04;10.55;;;4.50;;
52284;SDS011;38238;53.304;6.606;2022-08-21T05:46:29;9.13;;;4.72;;
52284;SDS011;38238;53.304;6.606;2022-08-21T05:48:55;11.07;;;5.35;;
52284;SDS011;38238;53.304;6.606;2022-08-21T05:51:21;7.53;;;4.38;;
52284;SDS011;38238;53.304;6.606;2022-08-21T05:53:47;8.50;;;4.10;;
52284;SDS011;38238;53.304;6.606;2022-08-21T05:56:13;9.48;;;4.95;;
52284;SDS011;38238;53.304;6.606;2022-08-21T05:58:39;9.60;;;4.53;;
52284;SDS011;38238;53.304;6.606;2022-08-21T06:01:05;8.60;;;4.38;;
52284;SDS011;38238;53.304;6.606;2022-08-21T06:03:34;8.85;;;4.70;;
52284;SDS011;38238;53.304;6.606;2022-08-21T06:06:01;7.65;;;4.32;;
52284;SDS011;38238;53.304;6.606;2022-08-21T06:08:27;7.35;;;4.20;;
52284;SDS011;38238;53.304;6.606;2022-08-21T06:10:54;9.38;;;4.32;;
52284;SDS011;38238;53.304;6.606;2022-08-21T06:13:22;9.98;;;4.75;;
52284;SDS011;38238;53.304;6.606;2022-08-21T06:15:49;8.70;;;4.90;;
52284;SDS011;38238;53.304;6.606;2022-08-21T06:18:15;7.65;;;4.05;;
52284;SDS011;38238;53.304;6.606;2022-08-21T06:20:41;7.40;;;4.45;;
52284;SDS011;38238;53.304;6.606;2022-08-21T06:23:07;6.22;;;3.78;;
52284;SDS011;38238;53.304;6.606;2022-08-21T06:25:34;9.02;;;4.97;;
52284;SDS011;38238;53.304;6.606;2022-08-21T06:28:04;8.80;;;4.38;;
52284;SDS011;38238;53.304;6.606;2022-08-21T06:30:32;9.98;;;4.72;;
52284;SDS011;38238;53.304;6.606;2022-08-21T06:32:58;11.63;;;5.07;;
52284;SDS011;38238;53.304;6.606;2022-08-21T06:35:24;9.75;;;4.47;;
52284;SDS011;38238;53.304;6.606;2022-08-21T06:37:50;8.60;;;4.57;;
52284;SDS011;38238;53.304;6.606;2022-08-21T06:40:16;8.52;;;4.85;;
52284;SDS011;38238;53.304;6.606;2022-08-21T06:42:42;9.05;;;4.68;;
52284;SDS011;38238;53.304;6.606;2022-08-21T06:45:08;8.90;;;5.15;;
52284;SDS011;38238;53.304;6.606;2022-08-21T06:47:35;14.40;;;5.25;;
52284;SDS011;38238;53.304;6.606;2022-08-21T06:50:00;11.85;;;4.88;;
52284;SDS011;38238;53.304;6.606;2022-08-21T06:52:26;9.75;;;4.78;;
52284;SDS011;38238;53.304;6.606;2022-08-21T06:54:52;9.55;;;4.07;;
52284;SDS011;38238;53.304;6.606;2022-08-21T06:57:18;10.40;;;4.90;;
52284;SDS011;38238;53.304;6.606;2022-08-21T06:59:43;10.52;;;4.80;;
52284;SDS011;38238;53.304;6.606;2022-08-21T07:02:09;6.75;;;4.05;;
52284;SDS011;38238;53.304;6.606;2022-08-21T07:04:35;9.30;;;4.38;;
52284;SDS011;38238;53.304;6.606;2022-08-21T07:07:01;7.75;;;4.60;;
52284;SDS011;38238;53.304;6.606;2022-08-21T07:09:27;9.65;;;4.15;;
52284;SDS011;38238;53.304;6.606;2022-08-21T07:11:53;9.18;;;4.22;;
52284;SDS011;38238;53.304;6.606;2022-08-21T07:14:20;11.27;;;4.55;;
52284;SDS011;38238;53.304;6.606;2022-08-21T07:16:46;8.63;;;4.18;;
52284;SDS011;38238;53.304;6.606;2022-08-21T07:19:13;10.25;;;3.90;;
52284;SDS011;38238;53.304;6.606;2022-08-21T07:21:38;9.27;;;3.67;;
52284;SDS011;38238;53.304;6.606;2022-08-21T07:24:04;8.27;;;3.50;;
52284;SDS011;38238;53.304;6.606;2022-08-21T07:26:30;9.55;;;3.95;;
52284;SDS011;38238;53.304;6.606;2022-08-21T07:28:55;8.73;;;3.33;;
52284;SDS011;38238;53.304;6.606;2022-08-21T07:31:22;6.75;;;2.83;;
52284;SDS011;38238;53.304;6.606;2022-08-21T07:33:49;7.50;;;3.20;;
52284;SDS011;38238;53.304;6.606;2022-08-21T07:36:15;7.45;;;2.85;;
52284;SDS011;38238;53.304;6.606;2022-08-21T07:38:41;7.68;;;3.10;;
52284;SDS011;38238;53.304;6.606;2022-08-21T07:41:10;9.23;;;3.38;;
52284;SDS011;38238;53.304;6.606;2022-08-21T07:43:40;7.43;;;3.13;;
52284;SDS011;38238;53.304;6.606;2022-08-21T07:46:05;9.48;;;3.30;;
52284;SDS011;38238;53.304;6.606;2022-08-21T07:48:31;8.25;;;3.15;;
52284;SDS011;38238;53.304;6.606;2022-08-21T07:50:57;8.40;;;3.13;;
52284;SDS011;38238;53.304;6.606;2022-08-21T07:53:24;8.30;;;3.10;;
52284;SDS011;38238;53.304;6.606;2022-08-21T07:55:50;6.10;;;2.67;;
52284;SDS011;38238;53.304;6.606;2022-08-21T07:58:16;5.38;;;2.40;;
52284;SDS011;38238;53.304;6.606;2022-08-21T08:00:42;8.82;;;3.15;;
52284;SDS011;38238;53.304;6.606;2022-08-21T08:03:07;6.18;;;2.42;;
52284;SDS011;38238;53.304;6.606;2022-08-21T08:05:33;9.70;;;3.10;;
52284;SDS011;38238;53.304;6.606;2022-08-21T08:08:02;8.25;;;2.85;;
52284;SDS011;38238;53.304;6.606;2022-08-21T08:10:28;8.45;;;3.10;;
52284;SDS011;38238;53.304;6.606;2022-08-21T08:12:54;10.10;;;2.92;;
52284;SDS011;38238;53.304;6.606;2022-08-21T08:15:21;7.63;;;2.72;;
52284;SDS011;38238;53.304;6.606;2022-08-21T08:17:48;9.07;;;3.70;;
52284;SDS011;38238;53.304;6.606;2022-08-21T08:20:15;9.10;;;3.10;;
52284;SDS011;38238;53.304;6.606;2022-08-21T08:22:43;8.93;;;2.97;;
52284;SDS011;38238;53.304;6.606;2022-08-21T08:25:10;8.95;;;3.50;;
52284;SDS011;38238;53.304;6.606;2022-08-21T08:27:38;9.02;;;3.38;;
52284;SDS011;38238;53.304;6.606;2022-08-21T08:30:05;7.38;;;2.92;;
52284;SDS011;38238;53.304;6.606;2022-08-21T08:32:32;6.32;;;3.00;;
52284;SDS011;38238;53.304;6.606;2022-08-21T08:34:58;7.22;;;2.88;;
52284;SDS011;38238;53.304;6.606;2022-08-21T08:37:24;8.20;;;3.55;;
52284;SDS011;38238;53.304;6.606;2022-08-21T08:39:50;8.68;;;3.28;;
52284;SDS011;38238;53.304;6.606;2022-08-21T08:42:18;10.98;;;3.53;;
52284;SDS011;38238;53.304;6.606;2022-08-21T08:45:09;8.32;;;3.08;;
52284;SDS011;38238;53.304;6.606;2022-08-21T08:47:52;12.75;;;3.72;;
52284;SDS011;38238;53.304;6.606;2022-08-21T09:00:32;8.85;;;3.28;;
52284;SDS011;38238;53.304;6.606;2022-08-21T09:02:59;14.50;;;3.63;;
52284;SDS011;38238;53.304;6.606;2022-08-21T09:11:26;11.15;;;3.72;;
52284;SDS011;38238;53.304;6.606;2022-08-21T09:17:19;9.98;;;2.90;;
52284;SDS011;38238;53.304;6.606;2022-08-21T09:22:43;11.65;;;3.33;;
52284;SDS011;38238;53.304;6.606;2022-08-21T09:25:32;8.07;;;2.80;;
52284;SDS011;38238;53.304;6.606;2022-08-21T09:28:08;8.43;;;3.30;;
52284;SDS011;38238;53.304;6.606;2022-08-21T09:30:37;10.93;;;3.15;;
52284;SDS011;38238;53.304;6.606;2022-08-21T09:33:06;7.20;;;2.80;;
52284;SDS011;38238;53.304;6.606;2022-08-21T09:35:31;11.85;;;3.00;;
52284;SDS011;38238;53.304;6.606;2022-08-21T09:38:04;7.32;;;2.83;;
52284;SDS011;38238;53.304;6.606;2022-08-21T09:41:07;9.93;;;2.80;;
52284;SDS011;38238;53.304;6.606;2022-08-21T09:43:27;7.50;;;2.95;;
52284;SDS011;38238;53.304;6.606;2022-08-21T09:46:07;7.20;;;2.70;;
52284;SDS011;38238;53.304;6.606;2022-08-21T09:48:45;7.22;;;3.15;;
52284;SDS011;38238;53.304;6.606;2022-08-21T09:51:23;9.05;;;2.47;;
52284;SDS011;38238;53.304;6.606;2022-08-21T09:53:58;7.25;;;2.70;;
52284;SDS011;38238;53.304;6.606;2022-08-21T09:56:33;6.45;;;2.35;;
52284;SDS011;38238;53.304;6.606;2022-08-21T09:59:32;7.88;;;2.72;;
52284;SDS011;38238;53.304;6.606;2022-08-21T10:02:00;9.18;;;2.88;;
52284;SDS011;38238;53.304;6.606;2022-08-21T10:04:33;7.00;;;2.88;;
52284;SDS011;38238;53.304;6.606;2022-08-21T10:07:08;7.50;;;2.50;;
52284;SDS011;38238;53.304;6.606;2022-08-21T10:09:36;10.25;;;2.90;;
52284;SDS011;38238;53.304;6.606;2022-08-21T10:12:16;8.38;;;2.95;;
52284;SDS011;38238;53.304;6.606;2022-08-21T10:20:08;9.65;;;2.95;;
52284;SDS011;38238;53.304;6.606;2022-08-21T10:22:47;7.10;;;2.72;;
52284;SDS011;38238;53.304;6.606;2022-08-21T10:25:38;7.35;;;2.40;;
52284;SDS011;38238;53.304;6.606;2022-08-21T10:30:57;7.10;;;2.40;;
52284;SDS011;38238;53.304;6.606;2022-08-21T10:36:10;5.65;;;2.35;;
52284;SDS011;38238;53.304;6.606;2022-08-21T11:00:10;6.45;;;2.50;;
52284;SDS011;38238;53.304;6.606;2022-08-21T11:02:51;7.70;;;2.55;;
52284;SDS011;38238;53.304;6.606;2022-08-21T11:05:29;6.30;;;2.80;;
52284;SDS011;38238;53.304;6.606;2022-08-21T11:08:14;5.63;;;2.30;;
52284;SDS011;38238;53.304;6.606;2022-08-21T11:10:59;8.10;;;2.28;;
52284;SDS011;38238;53.304;6.606;2022-08-21T11:16:32;9.50;;;2.60;;
52284;SDS011;38238;53.304;6.606;2022-08-21T11:19:22;7.10;;;2.58;;
52284;SDS011;38238;53.304;6.606;2022-08-21T11:22:01;6.10;;;2.50;;
52284;SDS011;38238;53.304;6.606;2022-08-21T11:24:47;5.70;;;1.90;;
52284;SDS011;38238;53.304;6.606;2022-08-21T11:29:54;7.55;;;2.40;;
52284;SDS011;38238;53.304;6.606;2022-08-21T11:35:35;6.82;;;2.33;;
52284;SDS011;38238;53.304;6.606;2022-08-21T11:40:52;8.77;;;2.53;;
52284;SDS011;38238;53.304;6.606;2022-08-21T11:43:39;5.28;;;2.03;;
52284;SDS011;38238;53.304;6.606;2022-08-21T11:51:33;7.22;;;2.13;;
52284;SDS011;38238;53.304;6.606;2022-08-21T11:56:38;8.07;;;2.55;;
52284;SDS011;38238;53.304;6.606;2022-08-21T11:59:09;7.75;;;2.55;;
52284;SDS011;38238;53.304;6.606;2022-08-21T12:01:43;5.60;;;2.03;;
52284;SDS011;38238;53.304;6.606;2022-08-21T12:06:51;6.53;;;2.53;;
52284;SDS011;38238;53.304;6.606;2022-08-21T12:11:50;6.90;;;2.40;;
52284;SDS011;38238;53.304;6.606;2022-08-21T12:14:41;3.80;;;1.88;;
52284;SDS011;38238;53.304;6.606;2022-08-21T12:17:17;6.22;;;2.28;;
52284;SDS011;38238;53.304;6.606;2022-08-21T12:19:56;4.88;;;2.03;;
52284;SDS011;38238;53.304;6.606;2022-08-21T12:22:39;5.50;;;2.50;;
52284;SDS011;38238;53.304;6.606;2022-08-21T12:25:08;5.50;;;2.20;;
52284;SDS011;38238;53.304;6.606;2022-08-21T12:27:45;5.68;;;1.98;;
52284;SDS011;38238;53.304;6.606;2022-08-21T12:30:21;5.82;;;2.20;;
52284;SDS011;38238;53.304;6.606;2022-08-21T12:32:58;6.45;;;2.25;;
52284;SDS011;38238;53.304;6.606;2022-08-21T12:35:40;6.85;;;2.08;;
52284;SDS011;38238;53.304;6.606;2022-08-21T12:38:17;5.20;;;2.10;;
52284;SDS011;38238;53.304;6.606;2022-08-21T12:40:54;7.68;;;2.33;;
52284;SDS011;38238;53.304;6.606;2022-08-21T12:43:28;5.57;;;1.90;;
52284;SDS011;38238;53.304;6.606;2022-08-21T12:45:54;6.85;;;2.25;;
52284;SDS011;38238;53.304;6.606;2022-08-21T12:50:54;7.40;;;2.28;;
52284;SDS011;38238;53.304;6.606;2022-08-21T12:53:30;5.47;;;1.88;;
52284;SDS011;38238;53.304;6.606;2022-08-21T12:55:57;6.95;;;2.10;;
52284;SDS011;38238;53.304;6.606;2022-08-21T12:58:29;4.38;;;2.05;;
52284;SDS011;38238;53.304;6.606;2022-08-21T13:01:06;6.75;;;1.92;;
52284;SDS011;38238;53.304;6.606;2022-08-21T13:03:36;5.88;;;2.10;;
52284;SDS011;38238;53.304;6.606;2022-08-21T13:06:04;6.85;;;2.30;;
52284;SDS011;38238;53.304;6.606;2022-08-21T13:08:30;6.20;;;2.28;;
52284;SDS011;38238;53.304;6.606;2022-08-21T13:11:00;7.03;;;2.15;;
52284;SDS011;38238;53.304;6.606;2022-08-21T13:13:30;5.43;;;2.15;;
52284;SDS011;38238;53.304;6.606;2022-08-21T13:15:58;6.07;;;2.25;;
52284;SDS011;38238;53.304;6.606;2022-08-21T13:18:27;3.75;;;2.00;;
52284;SDS011;38238;53.304;6.606;2022-08-21T13:21:05;4.40;;;2.10;;
52284;SDS011;38238;53.304;6.606;2022-08-21T13:23:35;5.65;;;2.30;;
52284;SDS011;38238;53.304;6.606;2022-08-21T13:26:00;5.88;;;2.25;;
52284;SDS011;38238;53.304;6.606;2022-08-21T13:28:36;8.95;;;2.45;;
52284;SDS011;38238;53.304;6.606;2022-08-21T13:31:05;5.35;;;2.10;;
52284;SDS011;38238;53.304;6.606;2022-08-21T13:33:35;6.60;;;2.40;;
52284;SDS011;38238;53.304;6.606;2022-08-21T13:38:35;5.53;;;2.03;;
52284;SDS011;38238;53.304;6.606;2022-08-21T13:41:03;6.13;;;2.17;;
52284;SDS011;38238;53.304;6.606;2022-08-21T13:43:35;4.38;;;2.17;;
52284;SDS011;38238;53.304;6.606;2022-08-21T13:46:06;6.40;;;2.30;;
52284;SDS011;38238;53.304;6.606;2022-08-21T13:48:35;5.80;;;2.28;;
52284;SDS011;38238;53.304;6.606;2022-08-21T13:51:02;6.50;;;2.13;;
52284;SDS011;38238;53.304;6.606;2022-08-21T13:53:30;5.07;;;2.17;;
52284;SDS011;38238;53.304;6.606;2022-08-21T13:55:59;6.10;;;2.00;;
52284;SDS011;38238;53.304;6.606;2022-08-21T13:58:30;6.80;;;2.55;;
52284;SDS011;38238;53.304;6.606;2022-08-21T14:01:06;5.85;;;2.47;;
52284;SDS011;38238;53.304;6.606;2022-08-21T14:03:45;7.28;;;2.30;;
52284;SDS011;38238;53.304;6.606;2022-08-21T14:06:14;6.85;;;2.25;;
52284;SDS011;38238;53.304;6.606;2022-08-21T14:08:48;8.00;;;3.08;;
52284;SDS011;38238;53.304;6.606;2022-08-21T14:11:18;7.35;;;2.33;;
52284;SDS011;38238;53.304;6.606;2022-08-21T14:16:17;8.30;;;2.83;;
52284;SDS011;38238;53.304;6.606;2022-08-21T14:19:08;6.40;;;2.83;;
52284;SDS011;38238;53.304;6.606;2022-08-21T14:21:38;6.90;;;2.22;;
52284;SDS011;38238;53.304;6.606;2022-08-21T14:24:14;4.68;;;2.38;;
52284;SDS011;38238;53.304;6.606;2022-08-21T14:26:50;7.75;;;2.50;;
52284;SDS011;38238;53.304;6.606;2022-08-21T14:29:18;5.32;;;2.42;;
52284;SDS011;38238;53.304;6.606;2022-08-21T14:31:51;6.22;;;2.00;;
52284;SDS011;38238;53.304;6.606;2022-08-21T14:34:18;6.50;;;2.30;;
52284;SDS011;38238;53.304;6.606;2022-08-21T14:36:45;5.25;;;2.17;;
52284;SDS011;38238;53.304;6.606;2022-08-21T14:39:12;7.88;;;2.67;;
52284;SDS011;38238;53.304;6.606;2022-08-21T14:41:38;6.78;;;2.60;;
52284;SDS011;38238;53.304;6.606;2022-08-21T14:44:04;5.18;;;2.38;;
52284;SDS011;38238;53.304;6.606;2022-08-21T14:46:30;10.13;;;3.00;;
52284;SDS011;38238;53.304;6.606;2022-08-21T14:48:57;7.68;;;2.47;;
52284;SDS011;38238;53.304;6.606;2022-08-21T14:51:23;8.07;;;2.55;;
52284;SDS011;38238;53.304;6.606;2022-08-21T14:53:49;7.75;;;2.88;;
52284;SDS011;38238;53.304;6.606;2022-08-21T14:56:14;7.95;;;2.50;;
52284;SDS011;38238;53.304;6.606;2022-08-21T14:58:42;6.57;;;2.88;;
52284;SDS011;38238;53.304;6.606;2022-08-21T15:01:10;6.07;;;2.40;;
52284;SDS011;38238;53.304;6.606;2022-08-21T15:03:38;10.82;;;3.30;;
52284;SDS011;38238;53.304;6.606;2022-08-21T15:06:04;8.93;;;2.45;;
52284;SDS011;38238;53.304;6.606;2022-08-21T15:08:31;8.30;;;2.55;;
52284;SDS011;38238;53.304;6.606;2022-08-21T15:10:58;6.93;;;2.55;;
52284;SDS011;38238;53.304;6.606;2022-08-21T15:13:25;6.47;;;3.45;;
52284;SDS011;38238;53.304;6.606;2022-08-21T15:15:50;6.40;;;2.90;;
52284;SDS011;38238;53.304;6.606;2022-08-21T15:18:21;8.70;;;3.00;;
52284;SDS011;38238;53.304;6.606;2022-08-21T15:20:49;6.50;;;2.65;;
52284;SDS011;38238;53.304;6.606;2022-08-21T15:23:15;9.43;;;2.80;;
52284;SDS011;38238;53.304;6.606;2022-08-21T15:25:42;6.10;;;2.60;;
52284;SDS011;38238;53.304;6.606;2022-08-21T15:28:09;6.53;;;2.40;;
52284;SDS011;38238;53.304;6.606;2022-08-21T15:30:37;5.25;;;2.33;;
52284;SDS011;38238;53.304;6.606;2022-08-21T15:33:04;7.75;;;2.45;;
52284;SDS011;38238;53.304;6.606;2022-08-21T15:35:30;7.50;;;2.60;;
52284;SDS011;38238;53.304;6.606;2022-08-21T15:37:56;9.40;;;3.00;;
52284;SDS011;38238;53.304;6.606;2022-08-21T15:40:22;7.38;;;2.33;;
52284;SDS011;38238;53.304;6.606;2022-08-21T15:42:49;7.32;;;2.40;;
52284;SDS011;38238;53.304;6.606;2022-08-21T15:45:18;9.05;;;3.00;;
52284;SDS011;38238;53.304;6.606;2022-08-21T15:47:44;11.55;;;3.47;;
52284;SDS011;38238;53.304;6.606;2022-08-21T15:50:11;6.55;;;2.85;;
52284;SDS011;38238;53.304;6.606;2022-08-21T15:52:38;8.20;;;2.70;;
52284;SDS011;38238;53.304;6.606;2022-08-21T15:55:04;8.15;;;2.30;;
52284;SDS011;38238;53.304;6.606;2022-08-21T15:57:31;9.20;;;3.15;;
52284;SDS011;38238;53.304;6.606;2022-08-21T15:59:58;9.38;;;2.70;;
52284;SDS011;38238;53.304;6.606;2022-08-21T16:02:33;7.10;;;2.60;;
52284;SDS011;38238;53.304;6.606;2022-08-21T16:04:59;7.55;;;2.58;;
52284;SDS011;38238;53.304;6.606;2022-08-21T16:07:25;8.02;;;2.80;;
52284;SDS011;38238;53.304;6.606;2022-08-21T16:09:51;12.40;;;2.85;;
52284;SDS011;38238;53.304;6.606;2022-08-21T16:12:19;9.23;;;2.95;;
52284;SDS011;38238;53.304;6.606;2022-08-21T16:14:50;6.50;;;2.72;;
52284;SDS011;38238;53.304;6.606;2022-08-21T16:17:17;6.43;;;2.47;;
52284;SDS011;38238;53.304;6.606;2022-08-21T16:19:43;6.68;;;2.70;;
52284;SDS011;38238;53.304;6.606;2022-08-21T16:22:09;7.18;;;2.40;;
52284;SDS011;38238;53.304;6.606;2022-08-21T16:24:34;8.05;;;2.63;;